KMNH

Monument Pass Airport

Monument Pass, Colorado, USA
METAR KMNH 230954Z AUTO 22011KT 10SM CLR M09/M11 A2997 RMK AO2
Observed Flight Rules
Feb-23 @ 09:54 UTC (33 minutes ago) Visual Flight Rules
Wind Visibility Clouds
220° at 11 knots 10 miles
  • Clear skies
Temperatures Readings
Current -9°C / 16°F
Dewpoint -11°C / 12°F
Humidity 86%
Altimeter 29.97" Hg
Pressure 1015 hPa
Elevation 2152
METAR KMNH 230954Z AUTO 22011KT 10SM CLR M09/M11 A2997 RMK AO2
Observed Flight Rules
Feb-23 @ 09:54 UTC
(33 minutes ago)
VFR
Wind Visibility
220° at 11 knots 10 miles
Clouds
  • Clear skies
Temperature Dewpoint
-9°C / 16°F -11°C / 12°F
Humidity Altimeter Pressure
86% 29.97" Hg 1015 hPa